Time;durP1;ratioP1;P1;durP2;ratioP2;P2;SDS_P1;SDS_P2;PMS_P1;PMS_P2;Temp;Humidity;BMP_temperature;BMP_pressure;BME280_temperature;BME280_humidity;BME280_pressure;Samples;Min_cycle;Max_cycle;Signal;HPM_P1;HPM_P2
2021/11/19 00:01:36;;;;;;;26.88;15.48;;;11.60;90.70;;;;;;5016774;28;20013;-79
2021/11/19 00:04:02;;;;;;;30.50;15.15;;;11.60;90.70;;;;;;5016977;28;20029;-78
2021/11/19 00:06:27;;;;;;;28.15;15.23;;;11.60;90.70;;;;;;5016520;28;20026;-80
2021/11/19 00:08:54;;;;;;;32.25;15.88;;;11.60;90.70;;;;;;5016759;28;20172;-79
2021/11/19 00:11:24;;;;;;;24.50;14.95;;;11.60;90.70;;;;;;5034341;28;20028;-79
2021/11/19 00:13:50;;;;;;;25.75;14.88;;;11.60;90.70;;;;;;5016622;28;20028;-78
2021/11/19 00:16:18;;;;;;;26.27;15.45;;;11.60;90.70;;;;;;5016131;28;20029;-80
2021/11/19 00:18:43;;;;;;;25.77;15.18;;;11.60;90.70;;;;;;5034200;28;20025;-81
2021/11/19 00:21:10;;;;;;;27.63;14.70;;;11.60;90.70;;;;;;5016814;28;20032;-78
2021/11/19 00:23:35;;;;;;;27.92;14.80;;;11.60;90.70;;;;;;5016401;28;20022;-79
2021/11/19 00:26:02;;;;;;;27.27;15.30;;;11.60;90.60;;;;;;5016246;28;20076;-79
2021/11/19 00:28:28;;;;;;;26.92;14.75;;;11.60;90.50;;;;;;5016293;28;20480;-80
2021/11/19 00:30:53;;;;;;;28.77;15.73;;;11.60;90.50;;;;;;5016267;28;20033;-79
2021/11/19 00:33:19;;;;;;;29.02;15.10;;;11.70;90.50;;;;;;5015816;28;20032;-79
2021/11/19 00:35:46;;;;;;;25.85;15.05;;;11.70;90.50;;;;;;5015863;28;20021;-79
2021/11/19 00:38:15;;;;;;;30.67;15.52;;;11.70;90.50;;;;;;5033808;28;20026;-80
2021/11/19 00:40:54;;;;;;;27.27;14.63;;;11.70;90.50;;;;;;5034039;28;20017;-79
2021/11/19 00:43:21;;;;;;;32.50;15.88;;;11.70;90.50;;;;;;5016449;28;20349;-80
2021/11/19 00:45:48;;;;;;;27.40;14.90;;;11.70;90.50;;;;;;5015706;28;20380;-79
2021/11/19 00:48:14;;;;;;;31.50;15.50;;;11.80;90.40;;;;;;5016048;28;20064;-78
2021/11/19 00:50:53;;;;;;;33.70;15.32;;;11.70;90.40;;;;;;5016134;28;20021;-80
2021/11/19 00:53:19;;;;;;;25.90;14.98;;;11.80;90.40;;;;;;5033605;28;20025;-79
2021/11/19 00:55:45;;;;;;;28.00;14.98;;;11.80;90.30;;;;;;5015569;28;20021;-78
2021/11/19 00:58:11;;;;;;;29.48;14.43;;;11.80;90.30;;;;;;5015757;28;20021;-78
2021/11/19 01:00:44;;;;;;;29.83;15.48;;;11.80;90.30;;;;;;5015711;28;20028;-79
2021/11/19 01:03:10;;;;;;;45.85;17.48;;;11.80;90.30;;;;;;5015912;28;20080;-79
2021/11/19 01:05:35;;;;;;;33.00;15.98;;;11.80;90.50;;;;;;5015485;28;20472;-80
2021/11/19 01:08:01;;;;;;;36.78;17.52;;;11.70;90.60;;;;;;5015390;28;20476;-78
2021/11/19 01:10:31;;;;;;;35.60;17.13;;;11.70;90.50;;;;;;5015547;28;20112;-79
2021/11/19 01:12:57;;;;;;;29.30;15.68;;;11.70;90.70;;;;;;5033220;28;20056;-80
2021/11/19 01:15:33;;;;;;;36.38;16.58;;;11.70;90.90;;;;;;5015510;28;20025;-79
2021/11/19 01:18:14;;;;;;;31.08;16.65;;;11.70;91.00;;;;;;5015466;28;20112;-79
2021/11/19 01:20:57;;;;;;;29.67;16.38;;;11.60;90.90;;;;;;5015363;28;20045;-78
2021/11/19 01:23:25;;;;;;;31.17;16.60;;;11.60;91.00;;;;;;5015558;28;20160;-79
2021/11/19 01:25:58;;;;;;;28.35;16.08;;;11.60;91.00;;;;;;5015106;28;20542;-79
2021/11/19 01:28:24;;;;;;;24.70;14.90;;;11.60;91.10;;;;;;5015403;28;20032;-80
2021/11/19 01:30:54;;;;;;;27.80;16.05;;;11.60;91.00;;;;;;5015274;28;20027;-80
2021/11/19 01:33:20;;;;;;;25.38;15.57;;;11.60;90.90;;;;;;5014694;28;20025;-80
2021/11/19 01:35:46;;;;;;;25.02;15.15;;;11.60;91.00;;;;;;5014700;28;20021;-79
2021/11/19 01:38:12;;;;;;;27.95;16.15;;;11.60;91.10;;;;;;5015448;28;20515;-79
2021/11/19 01:40:45;;;;;;;25.73;15.38;;;11.60;91.00;;;;;;5014933;28;20021;-78
2021/11/19 01:43:13;;;;;;;26.50;16.38;;;11.60;91.00;;;;;;5015069;28;20018;-78
2021/11/19 01:45:47;;;;;;;26.35;16.48;;;11.60;91.00;;;;;;5015061;28;20078;-79
2021/11/19 01:48:18;;;;;;;24.38;15.70;;;11.60;91.00;;;;;;5015111;28;20051;-80
2021/11/19 01:50:57;;;;;;;25.42;16.08;;;11.60;90.90;;;;;;5015090;28;20028;-80
2021/11/19 01:53:29;;;;;;;24.95;15.93;;;11.60;91.00;;;;;;5032643;28;20472;-80
2021/11/19 01:56:05;;;;;;;26.33;16.25;;;11.60;91.10;;;;;;5014621;28;20464;-80
2021/11/19 01:58:37;;;;;;;25.30;17.00;;;11.60;91.10;;;;;;5015060;28;20120;-79
2021/11/19 02:01:09;;;;;;;26.88;16.63;;;11.60;91.00;;;;;;5014812;28;20350;-80
2021/11/19 02:03:38;;;;;;;28.27;17.35;;;11.60;91.00;;;;;;5015279;28;20028;-78
2021/11/19 02:06:15;;;;;;;25.58;16.55;;;11.60;91.10;;;;;;5014365;28;20036;-79
2021/11/19 02:08:43;;;;;;;28.63;17.38;;;11.60;91.10;;;;;;5014853;28;20021;-78
2021/11/19 02:11:30;;;;;;;24.95;16.38;;;11.60;91.10;;;;;;5014792;28;20499;-81
2021/11/19 02:14:03;;;;;;;26.33;16.02;;;11.60;91.10;;;;;;5014767;28;20456;-78
2021/11/19 02:19:12;;;;;;;26.10;16.77;;;11.60;91.20;;;;;;5030493;28;20042;-75
2021/11/19 02:21:49;;;;;;;27.92;17.45;;;11.60;91.10;;;;;;5031089;28;20025;-75
2021/11/19 02:24:22;;;;;;;25.83;16.83;;;11.60;91.20;;;;;;5030904;28;20025;-77
2021/11/19 02:26:59;;;;;;;30.88;17.58;;;11.60;91.10;;;;;;5014585;28;20476;-76
2021/11/19 02:29:26;;;;;;;29.23;16.30;;;11.60;91.20;;;;;;5014590;28;20384;-76
2021/11/19 02:32:02;;;;;;;29.42;17.95;;;11.60;91.10;;;;;;5030965;28;20071;-76
2021/11/19 02:34:29;;;;;;;27.33;16.45;;;11.60;91.20;;;;;;5030206;28;20049;-75
2021/11/19 02:37:05;;;;;;;25.48;17.15;;;11.60;91.20;;;;;;5030909;28;20013;-75
2021/11/19 02:39:43;;;;;;;27.70;17.42;;;11.60;91.20;;;;;;5032226;28;20100;-76
2021/11/19 02:42:23;;;;;;;27.25;16.95;;;11.60;91.20;;;;;;5032200;28;20025;-75
2021/11/19 02:44:50;;;;;;;25.05;16.58;;;11.60;91.20;;;;;;5030618;28;20022;-76
2021/11/19 02:47:18;;;;;;;23.25;16.38;;;11.60;91.20;;;;;;5030791;28;20029;-78
2021/11/19 02:49:45;;;;;;;23.30;15.90;;;11.60;91.20;;;;;;5032021;28;20472;-77
2021/11/19 02:52:22;;;;;;;25.13;17.15;;;11.60;91.20;;;;;;5032201;28;20021;-77
2021/11/19 02:54:48;;;;;;;23.73;16.02;;;11.60;91.20;;;;;;5017405;28;20044;-78
2021/11/19 02:57:15;;;;;;;28.33;17.55;;;11.60;91.20;;;;;;5035739;28;20021;-77
2021/11/19 02:59:41;;;;;;;23.67;15.85;;;11.60;91.20;;;;;;5034517;28;20045;-77
2021/11/19 03:02:11;;;;;;;25.58;17.30;;;11.60;91.20;;;;;;5026296;28;20045;-76
2021/11/19 03:04:41;;;;;;;26.00;16.95;;;11.70;91.30;;;;;;5017726;28;20068;-76
2021/11/19 03:07:06;;;;;;;25.15;16.92;;;11.70;91.30;;;;;;5034278;28;20053;-76
2021/11/19 03:09:39;;;;;;;26.38;17.77;;;11.60;91.50;;;;;;5017941;28;20495;-78
2021/11/19 03:12:08;;;;;;;24.00;17.25;;;11.60;91.30;;;;;;5034379;28;20705;-76
2021/11/19 03:14:34;;;;;;;27.23;17.40;;;11.70;91.40;;;;;;5033934;28;20495;-77
2021/11/19 03:17:01;;;;;;;25.05;17.17;;;11.70;91.30;;;;;;5033858;28;20029;-78
2021/11/19 03:19:27;;;;;;;25.83;17.80;;;11.60;91.30;;;;;;5034447;28;20353;-77
2021/11/19 03:21:54;;;;;;;24.95;18.17;;;11.70;91.40;;;;;;5035380;28;20100;-78
2021/11/19 03:24:21;;;;;;;23.13;16.90;;;11.60;91.40;;;;;;5017329;28;20108;-77
2021/11/19 03:26:48;;;;;;;26.20;16.95;;;11.70;91.40;;;;;;5035455;28;20018;-78
2021/11/19 03:29:14;;;;;;;27.92;18.08;;;11.60;91.30;;;;;;5015892;28;20022;-77
2021/11/19 03:31:40;;;;;;;28.60;17.67;;;11.70;91.40;;;;;;5017100;28;20017;-77
2021/11/19 03:34:10;;;;;;;24.75;16.98;;;11.60;91.30;;;;;;5016762;28;20013;-77
2021/11/19 03:36:38;;;;;;;27.30;18.35;;;11.60;91.30;;;;;;5033779;28;20026;-76
2021/11/19 03:39:05;;;;;;;27.75;18.55;;;11.70;91.40;;;;;;5033728;28;20014;-77
2021/11/19 03:41:35;;;;;;;27.17;17.63;;;11.60;91.40;;;;;;5034915;28;20473;-76
2021/11/19 03:44:15;;;;;;;25.73;18.45;;;11.70;91.40;;;;;;5034914;28;20022;-76
2021/11/19 03:46:52;;;;;;;27.40;18.00;;;11.70;91.40;;;;;;5034984;28;20100;-78
2021/11/19 03:49:18;;;;;;;24.80;17.77;;;11.70;91.40;;;;;;5034900;28;20021;-78
2021/11/19 03:51:51;;;;;;;27.08;19.02;;;11.60;91.40;;;;;;5033527;28;20025;-76
2021/11/19 03:54:20;;;;;;;27.35;18.80;;;11.70;91.40;;;;;;5033258;28;20119;-76
2021/11/19 03:56:46;;;;;;;26.27;18.55;;;11.70;91.50;;;;;;5033436;28;20028;-78
2021/11/19 03:59:12;;;;;;;26.42;18.15;;;11.70;91.50;;;;;;5034612;28;20029;-78
2021/11/19 04:01:41;;;;;;;28.20;18.73;;;11.70;91.70;;;;;;5016881;28;20025;-76
2021/11/19 04:04:07;;;;;;;27.85;18.40;;;11.60;91.40;;;;;;5033946;28;20349;-76
2021/11/19 04:06:34;;;;;;;26.05;19.10;;;11.70;91.50;;;;;;5033280;28;20026;-76
2021/11/19 04:09:00;;;;;;;29.77;19.58;;;11.70;91.70;;;;;;5034441;28;20105;-76
2021/11/19 04:11:26;;;;;;;26.70;18.73;;;11.60;91.40;;;;;;5016617;28;20049;-76
2021/11/19 04:13:52;;;;;;;29.83;18.58;;;11.70;91.30;;;;;;5033104;28;20048;-76
2021/11/19 04:16:28;;;;;;;28.02;18.50;;;11.70;91.30;;;;;;5034084;28;20068;-77
2021/11/19 04:18:54;;;;;;;28.67;18.80;;;11.70;91.40;;;;;;5034190;28;20449;-76
2021/11/19 04:21:20;;;;;;;25.25;18.42;;;11.70;91.30;;;;;;5033006;28;20049;-76
2021/11/19 04:23:49;;;;;;;27.77;18.17;;;11.80;91.40;;;;;;5016411;28;20112;-77
2021/11/19 04:26:16;;;;;;;26.70;18.38;;;11.80;91.40;;;;;;5032745;28;20024;-76
2021/11/19 04:28:43;;;;;;;28.25;19.55;;;11.80;91.20;;;;;;5032797;28;20476;-76
2021/11/19 04:31:09;;;;;;;27.35;18.88;;;11.80;91.20;;;;;;5032886;28;20028;-76
2021/11/19 04:33:35;;;;;;;26.60;18.42;;;11.80;91.20;;;;;;5015884;28;20018;-76
2021/11/19 04:36:01;;;;;;;27.35;18.75;;;11.80;91.20;;;;;;5033738;28;20028;-76
2021/11/19 04:38:27;;;;;;;27.02;18.60;;;11.80;91.10;;;;;;5033893;28;20052;-76
2021/11/19 04:40:54;;;;;;;26.15;17.90;;;11.80;91.10;;;;;;5016041;28;20060;-76
2021/11/19 04:43:21;;;;;;;26.83;18.90;;;11.90;91.10;;;;;;5032728;28;20028;-76
2021/11/19 04:45:48;;;;;;;24.60;18.45;;;11.80;91.30;;;;;;5032386;28;20018;-75
2021/11/19 04:48:14;;;;;;;28.35;19.17;;;11.80;91.10;;;;;;5032785;28;20368;-77
2021/11/19 04:50:43;;;;;;;27.45;19.00;;;11.90;91.20;;;;;;5033874;28;20021;-76
2021/11/19 04:53:12;;;;;;;26.00;19.25;;;11.80;91.30;;;;;;5032394;28;20061;-76
2021/11/19 04:55:37;;;;;;;27.42;19.15;;;11.80;91.40;;;;;;5033243;28;20048;-78
2021/11/19 04:58:05;;;;;;;26.67;18.85;;;11.80;91.40;;;;;;5015717;28;20476;-76
2021/11/19 05:00:55;;;;;;;25.35;18.13;;;11.80;91.50;;;;;;5032295;28;20014;-76
2021/11/19 05:03:21;;;;;;;26.23;19.55;;;11.70;91.60;;;;;;5033519;28;20031;-76
2021/11/19 05:05:48;;;;;;;25.38;18.52;;;11.70;91.70;;;;;;5033198;28;20026;-76
2021/11/19 05:08:13;;;;;;;24.58;18.02;;;11.70;91.70;;;;;;5032137;28;20075;-76
2021/11/19 05:10:42;;;;;;;23.95;18.85;;;11.70;91.70;;;;;;5015764;28;20026;-76
2021/11/19 05:13:09;;;;;;;23.13;18.27;;;11.70;91.70;;;;;;5015561;28;20121;-75
2021/11/19 05:15:38;;;;;;;23.48;18.00;;;11.70;91.80;;;;;;5030936;28;20021;-76
2021/11/19 05:18:04;;;;;;;25.30;18.23;;;11.70;92.00;;;;;;5028518;28;20033;-76
2021/11/19 05:20:31;;;;;;;24.95;18.08;;;11.70;91.70;;;;;;5029046;28;20022;-76
2021/11/19 05:22:57;;;;;;;25.15;18.30;;;11.70;91.80;;;;;;5028041;28;20014;-76
2021/11/19 05:25:26;;;;;;;24.15;17.75;;;11.70;91.70;;;;;;5011831;28;20353;-77
2021/11/19 05:27:53;;;;;;;21.88;17.13;;;11.70;91.70;;;;;;5028448;28;20275;-79
2021/11/19 05:30:20;;;;;;;22.38;17.30;;;11.70;91.70;;;;;;5011373;28;20025;-76
2021/11/19 05:32:46;;;;;;;22.63;17.33;;;11.60;91.60;;;;;;5029437;28;20361;-79
2021/11/19 05:35:14;;;;;;;23.95;16.67;;;11.60;91.70;;;;;;5010793;28;20029;-76
2021/11/19 05:37:40;;;;;;;21.83;15.88;;;11.70;91.80;;;;;;5031519;28;20017;-76
2021/11/19 05:40:09;;;;;;;21.77;16.30;;;11.60;91.80;;;;;;5031293;28;20017;-77
2021/11/19 05:42:34;;;;;;;21.08;16.15;;;11.70;91.90;;;;;;5037195;28;20029;-75
2021/11/19 05:45:00;;;;;;;22.40;16.50;;;11.60;91.80;;;;;;5010751;28;20021;-80
2021/11/19 05:47:26;;;;;;;21.95;15.95;;;11.60;91.80;;;;;;5028762;28;20034;-76
2021/11/19 05:49:52;;;;;;;21.20;16.30;;;11.60;91.70;;;;;;5011049;28;20075;-81
2021/11/19 05:52:18;;;;;;;22.65;15.82;;;11.70;91.90;;;;;;5011429;28;20021;-76
2021/11/19 05:54:44;;;;;;;20.02;15.13;;;11.60;91.90;;;;;;5028680;28;20029;-77
2021/11/19 05:57:13;;;;;;;21.05;15.52;;;11.60;92.00;;;;;;5010978;28;20033;-77
2021/11/19 05:59:39;;;;;;;20.58;15.05;;;11.70;91.90;;;;;;5028625;28;20021;-76
2021/11/19 06:02:08;;;;;;;20.48;15.35;;;11.60;91.80;;;;;;5028981;28;20017;-77
2021/11/19 06:04:34;;;;;;;20.52;14.77;;;11.70;91.80;;;;;;5011045;28;20053;-76
2021/11/19 06:06:59;;;;;;;18.80;14.90;;;11.70;91.90;;;;;;5011107;28;20057;-78
2021/11/19 06:09:29;;;;;;;17.92;14.20;;;11.60;91.90;;;;;;5010956;28;20476;-76
2021/11/19 06:12:09;;;;;;;17.85;13.35;;;11.70;91.90;;;;;;5010975;28;20025;-78
2021/11/19 06:14:40;;;;;;;20.80;15.25;;;11.70;92.00;;;;;;5009742;28;20040;-78
2021/11/19 06:17:19;;;;;;;18.10;14.13;;;11.70;92.00;;;;;;5010829;28;20026;-77
2021/11/19 06:19:49;;;;;;;20.55;14.90;;;11.70;91.90;;;;;;5010848;28;20029;-78
2021/11/19 06:22:31;;;;;;;19.08;14.48;;;11.70;91.90;;;;;;5011228;28;20021;-76
2021/11/19 06:24:56;;;;;;;18.48;14.23;;;11.70;92.10;;;;;;5010905;28;20587;-78
2021/11/19 06:27:30;;;;;;;20.55;15.45;;;11.70;92.00;;;;;;5012239;28;20131;-80
2021/11/19 06:29:57;;;;;;;18.10;14.25;;;11.70;92.10;;;;;;5035370;28;20563;-77
2021/11/19 06:32:25;;;;;;;18.15;13.57;;;11.70;92.10;;;;;;5016393;28;20080;-78
2021/11/19 06:34:51;;;;;;;17.88;14.05;;;11.70;92.00;;;;;;5032175;28;20112;-76
2021/11/19 06:37:18;;;;;;;19.25;14.05;;;11.70;92.00;;;;;;5035610;28;20120;-76
2021/11/19 06:39:44;;;;;;;18.58;14.35;;;11.60;92.00;;;;;;5052562;28;20021;-75
2021/11/19 06:42:12;;;;;;;19.25;14.57;;;11.70;92.00;;;;;;5033877;28;20052;-79
2021/11/19 06:44:39;;;;;;;19.88;13.90;;;11.70;91.90;;;;;;5051331;28;20543;-79
2021/11/19 06:47:06;;;;;;;19.20;14.13;;;11.70;91.80;;;;;;5034930;28;20021;-78
2021/11/19 06:49:32;;;;;;;17.48;13.88;;;11.70;91.80;;;;;;5034164;28;20024;-78
2021/11/19 06:51:58;;;;;;;20.33;13.38;;;11.70;91.90;;;;;;5052416;28;20031;-77
2021/11/19 06:54:23;;;;;;;18.20;13.45;;;11.70;91.90;;;;;;5034444;28;20017;-78
2021/11/19 06:56:50;;;;;;;17.67;13.75;;;11.70;91.90;;;;;;5034083;28;20028;-78
2021/11/19 06:59:15;;;;;;;18.15;13.60;;;11.70;91.80;;;;;;5052085;28;20935;-77
2021/11/19 07:01:41;;;;;;;19.23;13.25;;;11.70;91.70;;;;;;5034104;28;20116;-76
2021/11/19 07:04:07;;;;;;;18.02;13.13;;;11.70;91.90;;;;;;5025794;28;20027;-77
2021/11/19 07:06:33;;;;;;;17.88;13.02;;;11.70;92.00;;;;;;5051766;28;20395;-76
2021/11/19 07:09:00;;;;;;;17.75;12.98;;;11.70;92.00;;;;;;5033885;28;20055;-77
2021/11/19 07:11:27;;;;;;;16.17;11.98;;;11.70;92.10;;;;;;5051752;28;20098;-78
2021/11/19 07:13:53;;;;;;;16.67;12.38;;;11.70;92.10;;;;;;5033878;28;20032;-77
2021/11/19 07:16:20;;;;;;;16.70;12.20;;;11.70;92.00;;;;;;5051323;28;20020;-76
2021/11/19 07:18:46;;;;;;;16.45;12.80;;;11.70;92.10;;;;;;5033774;28;20028;-79
2021/11/19 07:21:12;;;;;;;16.75;12.02;;;11.70;92.00;;;;;;5051431;28;20643;-77
2021/11/19 07:23:38;;;;;;;16.67;12.18;;;11.70;92.10;;;;;;5033802;28;20063;-76
2021/11/19 07:26:04;;;;;;;16.23;11.80;;;11.70;92.10;;;;;;5033820;28;20040;-78
2021/11/19 07:28:30;;;;;;;15.98;12.48;;;11.70;92.10;;;;;;5051611;28;20025;-79
2021/11/19 07:30:59;;;;;;;18.17;11.95;;;11.70;92.10;;;;;;5033867;28;20031;-76
2021/11/19 07:33:26;;;;;;;16.33;12.30;;;11.70;92.10;;;;;;5022476;28;20396;-77
2021/11/19 07:35:53;;;;;;;16.45;12.35;;;11.70;92.10;;;;;;5011033;28;20492;-76
2021/11/19 07:38:21;;;;;;;16.15;11.65;;;11.70;92.10;;;;;;5010098;28;20122;-76
2021/11/19 07:40:47;;;;;;;18.33;11.52;;;11.70;92.00;;;;;;5011370;28;20252;-76
2021/11/19 07:43:15;;;;;;;16.23;11.95;;;11.70;92.10;;;;;;5011394;28;20056;-78
2021/11/19 07:45:41;;;;;;;16.33;10.98;;;11.70;92.20;;;;;;5009916;28;20025;-75
2021/11/19 07:48:11;;;;;;;15.18;11.25;;;11.70;92.10;;;;;;5011086;28;20041;-75
2021/11/19 07:50:38;;;;;;;15.13;11.30;;;11.70;92.10;;;;;;5009413;28;20472;-79
2021/11/19 07:53:04;;;;;;;15.70;11.35;;;11.70;92.10;;;;;;5011513;28;20084;-77
2021/11/19 07:55:30;;;;;;;14.35;11.10;;;11.70;92.00;;;;;;5009603;28;20030;-76
2021/11/19 07:57:57;;;;;;;14.57;10.73;;;11.70;92.00;;;;;;5010028;28;20025;-75
2021/11/19 08:00:27;;;;;;;16.25;11.60;;;11.70;92.10;;;;;;5009537;28;20030;-77
2021/11/19 08:02:52;;;;;;;16.30;11.43;;;11.80;91.90;;;;;;5006431;28;20495;-79
2021/11/19 08:05:19;;;;;;;15.70;11.60;;;11.80;91.90;;;;;;5005523;28;20030;-77
2021/11/19 08:07:45;;;;;;;14.95;11.38;;;11.80;91.80;;;;;;5005663;28;20654;-76
2021/11/19 08:10:12;;;;;;;14.95;10.65;;;11.80;91.80;;;;;;5006112;28;20133;-79
2021/11/19 08:12:38;;;;;;;14.10;10.60;;;11.80;91.90;;;;;;5005431;28;20030;-76
2021/11/19 08:15:05;;;;;;;15.68;10.95;;;11.90;91.90;;;;;;5005548;28;20022;-76
2021/11/19 08:17:34;;;;;;;14.88;10.57;;;11.90;91.80;;;;;;5006615;28;20036;-76
2021/11/19 08:20:01;;;;;;;14.55;10.95;;;11.90;91.80;;;;;;5006664;28;20078;-76
2021/11/19 08:22:27;;;;;;;15.50;11.35;;;11.90;91.80;;;;;;5007022;28;20026;-77
2021/11/19 08:24:53;;;;;;;14.68;11.48;;;11.90;91.80;;;;;;5006199;28;20029;-77
2021/11/19 08:27:23;;;;;;;16.02;11.10;;;11.90;91.90;;;;;;5006615;28;20033;-77
2021/11/19 08:29:52;;;;;;;15.27;11.02;;;11.90;91.70;;;;;;5006529;28;20025;-78
2021/11/19 08:32:20;;;;;;;15.40;11.52;;;11.90;91.70;;;;;;5006863;28;20029;-76
2021/11/19 08:34:47;;;;;;;13.32;10.27;;;12.00;91.70;;;;;;5006188;28;20300;-75
2021/11/19 08:37:14;;;;;;;14.00;10.90;;;11.90;91.70;;;;;;5006879;28;20030;-76
2021/11/19 08:39:39;;;;;;;13.65;10.68;;;11.90;91.80;;;;;;5006481;28;20045;-78
2021/11/19 08:42:08;;;;;;;15.00;11.25;;;12.00;92.00;;;;;;5005731;28;20034;-76
2021/11/19 08:44:34;;;;;;;15.90;11.77;;;11.90;92.10;;;;;;5004764;28;20030;-77
2021/11/19 08:47:00;;;;;;;16.30;11.98;;;11.90;92.10;;;;;;5005540;28;20531;-76
2021/11/19 08:49:29;;;;;;;14.18;11.27;;;11.80;92.20;;;;;;5005430;28;20026;-75
2021/11/19 08:51:55;;;;;;;16.40;11.88;;;11.80;92.30;;;;;;5006207;28;20479;-76
2021/11/19 08:54:22;;;;;;;15.25;11.25;;;11.80;92.20;;;;;;5006005;28;20113;-77
2021/11/19 08:56:51;;;;;;;15.27;10.98;;;11.70;92.20;;;;;;5006395;28;20034;-77
2021/11/19 08:59:18;;;;;;;14.18;11.15;;;11.80;92.30;;;;;;5006060;28;20026;-79
2021/11/19 09:01:54;;;;;;;15.32;11.60;;;11.80;92.30;;;;;;5006265;28;20355;-77
2021/11/19 09:04:21;;;;;;;15.98;12.00;;;11.70;92.30;;;;;;5006154;28;20507;-76
2021/11/19 09:06:47;;;;;;;15.20;11.63;;;11.70;92.40;;;;;;5006055;28;20318;-76
2021/11/19 09:09:13;;;;;;;15.07;11.80;;;11.60;92.30;;;;;;5005991;28;20452;-76
2021/11/19 09:11:41;;;;;;;15.63;11.73;;;11.70;92.30;;;;;;5006049;28;20026;-76
2021/11/19 09:14:07;;;;;;;16.63;12.48;;;11.70;92.30;;;;;;5005620;28;20515;-76
2021/11/19 09:16:47;;;;;;;16.13;12.57;;;11.70;92.30;;;;;;5005515;28;20037;-76
2021/11/19 09:19:16;;;;;;;16.15;11.95;;;11.70;92.30;;;;;;5006210;28;20057;-77
2021/11/19 09:22:02;;;;;;;15.20;12.02;;;11.70;92.40;;;;;;5005807;28;20030;-75
2021/11/19 09:24:31;;;;;;;15.18;12.15;;;11.70;92.40;;;;;;5005762;28;20277;-77
2021/11/19 09:26:59;;;;;;;16.80;12.13;;;11.70;92.40;;;;;;5005673;28;20026;-77
2021/11/19 09:29:38;;;;;;;16.17;12.43;;;11.80;92.40;;;;;;5005676;28;20033;-76
2021/11/19 09:32:06;;;;;;;15.13;11.73;;;11.80;92.50;;;;;;5005631;28;20164;-78
2021/11/19 09:34:36;;;;;;;16.80;12.82;;;11.70;92.40;;;;;;5005128;28;20022;-77
2021/11/19 09:37:06;;;;;;;15.32;12.40;;;11.80;92.50;;;;;;5005631;28;20378;-78
2021/11/19 09:39:32;;;;;;;16.73;12.85;;;11.80;92.40;;;;;;5005520;28;20030;-79
2021/11/19 09:42:12;;;;;;;17.00;12.77;;;11.80;92.30;;;;;;5005448;28;20085;-78
2021/11/19 09:44:41;;;;;;;15.98;12.35;;;11.70;92.40;;;;;;5005475;28;20065;-78
2021/11/19 09:47:26;;;;;;;16.50;12.57;;;11.80;92.50;;;;;;5005152;28;20029;-82
2021/11/19 09:50:14;;;;;;;17.65;14.23;;;11.70;92.40;;;;;;5005304;28;20037;-78
2021/11/19 09:53:04;;;;;;;17.08;13.45;;;11.80;92.40;;;;;;5004292;28;20053;-78
2021/11/19 09:56:09;;;;;;;17.55;13.40;;;11.70;92.40;;;;;;5004670;28;20056;-77
2021/11/19 09:58:53;;;;;;;16.02;12.65;;;11.70;92.50;;;;;;5005265;28;20401;-80
2021/11/19 10:01:40;;;;;;;17.23;12.43;;;11.80;92.50;;;;;;5005229;28;20022;-79
2021/11/19 10:04:27;;;;;;;16.40;12.38;;;11.80;92.50;;;;;;5004863;28;20034;-76
2021/11/19 10:07:02;;;;;;;17.60;13.45;;;11.80;92.60;;;;;;5005335;28;20033;-81
2021/11/19 10:09:37;;;;;;;15.93;12.48;;;11.80;92.60;;;;;;5005155;28;20034;-78
2021/11/19 10:12:20;;;;;;;18.33;13.63;;;11.80;92.60;;;;;;4988946;28;20037;-77
2021/11/19 10:14:55;;;;;;;19.00;13.65;;;11.80;92.60;;;;;;5004840;28;20041;-77
2021/11/19 10:17:40;;;;;;;16.98;13.07;;;11.80;92.40;;;;;;4988677;28;20092;-76
2021/11/19 10:20:23;;;;;;;17.85;13.95;;;11.80;92.50;;;;;;5005094;28;20033;-80
2021/11/19 10:23:06;;;;;;;18.00;13.98;;;11.80;92.50;;;;;;5005108;28;20527;-77
2021/11/19 10:25:48;;;;;;;17.40;13.13;;;11.80;92.50;;;;;;5004998;28;20045;-77
2021/11/19 10:28:22;;;;;;;18.90;14.57;;;11.80;92.60;;;;;;4988706;28;20057;-81
2021/11/19 10:30:51;;;;;;;18.58;13.55;;;11.70;92.60;;;;;;5004951;28;20117;-78
2021/11/19 10:33:31;;;;;;;18.27;14.10;;;11.80;92.60;;;;;;5004790;28;20077;-77
2021/11/19 10:36:17;;;;;;;17.88;14.10;;;11.80;92.60;;;;;;5004671;28;20444;-78
2021/11/19 10:39:13;;;;;;;18.63;14.07;;;11.80;92.60;;;;;;4990573;28;20022;-78
2021/11/19 10:42:05;;;;;;;18.27;13.82;;;11.80;92.50;;;;;;5012420;28;20384;-76
2021/11/19 10:44:48;;;;;;;17.33;13.57;;;11.80;92.60;;;;;;5028183;28;20030;-78
2021/11/19 10:47:25;;;;;;;19.00;13.73;;;11.80;92.60;;;;;;5027068;28;20359;-77
2021/11/19 10:50:32;;;;;;;18.70;14.00;;;11.80;92.50;;;;;;5010706;28;20079;-76
2021/11/19 10:53:31;;;;;;;18.23;13.95;;;11.80;92.60;;;;;;5027348;28;20080;-76
2021/11/19 10:56:15;;;;;;;19.42;15.25;;;11.80;92.60;;;;;;5010625;28;20025;-76
2021/11/19 10:58:52;;;;;;;18.20;14.10;;;11.80;92.60;;;;;;5027153;28;20026;-79
2021/11/19 11:01:39;;;;;;;17.45;12.93;;;11.80;92.60;;;;;;5028650;28;20022;-77
2021/11/19 11:04:09;;;;;;;17.48;13.02;;;11.80;92.60;;;;;;5028365;28;20022;-77
2021/11/19 11:06:53;;;;;;;20.00;14.68;;;11.80;92.70;;;;;;5026925;28;20488;-77
2021/11/19 11:09:26;;;;;;;19.08;14.00;;;11.80;92.70;;;;;;5016994;28;20031;-78
2021/11/19 11:12:08;;;;;;;19.58;14.38;;;11.80;92.70;;;;;;5018384;28;20021;-78
2021/11/19 11:14:39;;;;;;;18.38;14.30;;;11.80;92.60;;;;;;5016056;28;20036;-78
2021/11/19 11:17:19;;;;;;;18.05;13.95;;;11.80;92.70;;;;;;5013967;28;20037;-78
2021/11/19 11:19:47;;;;;;;20.90;14.50;;;11.80;92.70;;;;;;5025393;28;20112;-76
2021/11/19 11:22:17;;;;;;;19.10;14.20;;;11.80;92.70;;;;;;5034134;28;20032;-78
2021/11/19 11:24:53;;;;;;;18.67;14.68;;;11.90;92.80;;;;;;5017010;28;20022;-80
2021/11/19 11:27:41;;;;;;;18.85;14.25;;;11.80;92.70;;;;;;5043512;28;20629;-78
2021/11/19 11:30:17;;;;;;;18.90;14.35;;;11.80;92.70;;;;;;5022427;28;20057;-79
2021/11/19 11:33:13;;;;;;;20.33;14.70;;;11.80;92.80;;;;;;5024427;28;20021;-78
2021/11/19 11:35:44;;;;;;;19.73;15.02;;;11.80;92.80;;;;;;5023677;28;20506;-79
2021/11/19 11:38:22;;;;;;;19.93;15.00;;;11.80;92.80;;;;;;5033240;28;20029;-77
2021/11/19 11:40:51;;;;;;;20.98;15.27;;;11.80;92.50;;;;;;5032981;28;20346;-78
2021/11/19 11:43:32;;;;;;;19.98;15.57;;;11.80;92.40;;;;;;5028949;28;20071;-76
2021/11/19 11:46:15;;;;;;;18.60;14.35;;;11.80;92.40;;;;;;5017067;28;20124;-79
2021/11/19 11:48:52;;;;;;;19.83;14.80;;;11.90;92.40;;;;;;5002012;28;20539;-75
2021/11/19 11:51:49;;;;;;;21.02;14.98;;;11.90;92.40;;;;;;5022220;28;20033;-76
2021/11/19 11:54:21;;;;;;;21.73;15.18;;;11.90;92.40;;;;;;5032878;28;20021;-81
2021/11/19 11:56:50;;;;;;;20.95;15.50;;;11.90;92.30;;;;;;5050810;28;20380;-77
2021/11/19 11:59:29;;;;;;;21.10;15.30;;;12.00;92.30;;;;;;5034291;28;20540;-79
2021/11/19 12:01:59;;;;;;;20.50;15.43;;;12.00;92.30;;;;;;5019962;28;20078;-77
2021/11/19 12:04:41;;;;;;;18.85;14.48;;;12.00;92.30;;;;;;5020468;28;20084;-77
2021/11/19 12:07:44;;;;;;;20.85;14.40;;;12.00;92.30;;;;;;5026977;28;20025;-77
2021/11/19 12:10:28;;;;;;;20.23;15.32;;;12.00;92.30;;;;;;5024380;28;20027;-76
2021/11/19 12:13:26;;;;;;;22.20;16.65;;;12.00;92.30;;;;;;5021741;28;20009;-78
2021/11/19 12:16:25;;;;;;;21.17;15.80;;;12.00;92.50;;;;;;5018065;28;20031;-76
2021/11/19 12:19:23;;;;;;;21.58;15.50;;;12.00;92.40;;;;;;5039584;28;20090;-76
2021/11/19 12:22:01;;;;;;;22.90;15.85;;;12.00;92.50;;;;;;5021832;28;20112;-76
2021/11/19 12:24:35;;;;;;;21.10;16.13;;;12.00;92.50;;;;;;5030452;28;20024;-77
2021/11/19 12:27:06;;;;;;;23.08;17.00;;;11.90;92.60;;;;;;5030662;28;20026;-76
2021/11/19 12:29:52;;;;;;;21.05;15.27;;;11.90;92.50;;;;;;5036849;28;20021;-77
2021/11/19 12:32:24;;;;;;;22.65;16.33;;;11.90;92.70;;;;;;5013096;28;20028;-79
2021/11/19 12:34:57;;;;;;;21.15;15.73;;;11.90;92.70;;;;;;5043876;22;20089;-76
2021/11/19 12:37:27;;;;;;;22.17;15.93;;;11.90;92.90;;;;;;5055351;28;20024;-77
2021/11/19 12:39:53;;;;;;;22.13;15.88;;;11.90;92.70;;;;;;5055462;28;20065;-77
2021/11/19 12:42:31;;;;;;;23.73;16.73;;;11.90;92.80;;;;;;5055150;28;20017;-77
2021/11/19 12:45:05;;;;;;;23.42;16.95;;;11.90;92.80;;;;;;5053725;28;20025;-77
2021/11/19 12:48:07;;;;;;;22.33;16.13;;;11.90;92.80;;;;;;5054683;28;20548;-77
2021/11/19 12:50:41;;;;;;;22.73;16.40;;;11.90;92.80;;;;;;5055421;28;20035;-79
2021/11/19 12:53:33;;;;;;;23.48;16.58;;;11.90;92.80;;;;;;5055343;28;20100;-77